Time;durP1;ratioP1;P1;durP2;ratioP2;P2;SDS_P1;SDS_P2;PMS_P1;PMS_P2;Temp;Humidity;BMP_temperature;BMP_pressure;BME280_temperature;BME280_humidity;BME280_pressure;Samples;Min_cycle;Max_cycle;Signal;HPM_P1;HPM_P2
2021/10/20 00:02:03;;;;;;;2.53;2.00;;;15.80;99.90;;;;;;4908472;29;20654;-82
2021/10/20 00:04:31;;;;;;;4.20;1.70;;;15.70;99.90;;;;;;4913575;29;20459;-81
2021/10/20 00:07:01;;;;;;;2.63;1.80;;;15.70;99.90;;;;;;4914779;29;20906;-82
2021/10/20 00:09:29;;;;;;;2.03;1.63;;;15.70;99.90;;;;;;4910934;29;20946;-82
2021/10/20 00:11:57;;;;;;;2.70;2.10;;;15.70;99.90;;;;;;4926004;29;20461;-81
2021/10/20 00:14:26;;;;;;;2.00;1.47;;;15.60;99.90;;;;;;4915051;29;20463;-82
2021/10/20 00:16:54;;;;;;;4.77;1.90;;;15.70;99.90;;;;;;4916894;29;20492;-82
2021/10/20 00:19:23;;;;;;;2.60;1.30;;;15.80;99.90;;;;;;4918640;29;20481;-81
2021/10/20 00:21:51;;;;;;;3.40;2.47;;;15.90;99.90;;;;;;4914716;29;20975;-82
2021/10/20 00:24:20;;;;;;;2.50;1.53;;;15.90;99.90;;;;;;4917488;29;20545;-82
2021/10/20 00:26:48;;;;;;;1.70;1.60;;;15.80;99.90;;;;;;4907394;29;20481;-83
2021/10/20 00:29:17;;;;;;;1.77;1.43;;;15.80;99.90;;;;;;4917800;29;20446;-81
2021/10/20 00:31:45;;;;;;;3.20;1.50;;;15.60;99.90;;;;;;4909794;29;20462;-83
2021/10/20 00:34:13;;;;;;;2.67;1.63;;;15.60;99.90;;;;;;4916743;29;20491;-82
2021/10/20 00:36:41;;;;;;;2.60;1.67;;;15.50;99.90;;;;;;4922066;29;20484;-82
2021/10/20 00:39:09;;;;;;;1.30;1.20;;;15.50;99.90;;;;;;4916752;29;20492;-82
2021/10/20 00:41:39;;;;;;;2.77;2.57;;;15.50;99.90;;;;;;4918681;29;21134;-83
2021/10/20 00:44:07;;;;;;;2.57;1.50;;;15.50;99.90;;;;;;4916410;29;20485;-82
2021/10/20 00:46:35;;;;;;;1.83;1.57;;;15.60;99.90;;;;;;4917407;29;20528;-81
2021/10/20 00:49:04;;;;;;;2.27;1.87;;;15.70;99.90;;;;;;4917248;29;20457;-82
2021/10/20 00:51:32;;;;;;;7.60;1.67;;;15.80;99.90;;;;;;4915347;29;20449;-82
2021/10/20 00:54:02;;;;;;;1.60;1.50;;;15.80;99.90;;;;;;4908443;29;20476;-82
2021/10/20 00:56:32;;;;;;;3.60;1.97;;;16.00;99.90;;;;;;4915710;29;20475;-82
2021/10/20 00:59:02;;;;;;;1.73;1.33;;;16.00;99.90;;;;;;4917242;29;21018;-83
2021/10/20 01:01:30;;;;;;;1.50;1.40;;;16.10;99.90;;;;;;4916355;29;20517;-83
2021/10/20 01:03:59;;;;;;;1.53;1.40;;;16.10;99.90;;;;;;4913927;29;20458;-84
2021/10/20 01:06:30;;;;;;;2.47;1.60;;;16.10;99.90;;;;;;4914093;29;20482;-83
2021/10/20 01:08:59;;;;;;;2.83;1.30;;;16.00;99.90;;;;;;4915318;29;20468;-85
2021/10/20 01:11:27;;;;;;;1.50;1.40;;;16.00;99.90;;;;;;4915491;29;20449;-83
2021/10/20 01:13:56;;;;;;;1.77;1.40;;;16.10;99.90;;;;;;4911502;29;20458;-83
2021/10/20 01:16:26;;;;;;;1.70;1.60;;;16.10;99.90;;;;;;4927058;29;20484;-83
2021/10/20 01:18:55;;;;;;;2.00;1.43;;;16.10;99.90;;;;;;4915259;29;21375;-83
2021/10/20 01:21:24;;;;;;;2.90;1.50;;;16.10;99.90;;;;;;4914888;29;20466;-83
2021/10/20 01:23:53;;;;;;;1.97;1.67;;;16.10;99.90;;;;;;4910150;29;20465;-83
2021/10/20 01:26:21;;;;;;;3.07;2.30;;;16.00;99.90;;;;;;4913707;29;20848;-83
2021/10/20 01:28:50;;;;;;;2.13;1.43;;;16.10;99.90;;;;;;4916719;29;20478;-82
2021/10/20 01:31:19;;;;;;;1.73;1.37;;;16.10;99.90;;;;;;4934991;29;21149;-83
2021/10/20 01:33:47;;;;;;;1.90;1.50;;;16.10;99.90;;;;;;4917282;29;20472;-83
2021/10/20 01:36:15;;;;;;;1.37;1.23;;;16.00;99.90;;;;;;4916250;29;20544;-82
2021/10/20 01:38:45;;;;;;;1.40;1.27;;;16.10;99.90;;;;;;4909764;29;20488;-83
2021/10/20 01:41:14;;;;;;;2.03;1.40;;;16.10;99.90;;;;;;4909203;29;20892;-84
2021/10/20 01:43:43;;;;;;;1.97;1.77;;;16.10;99.90;;;;;;4911933;29;20465;-83
2021/10/20 01:46:12;;;;;;;2.33;1.33;;;15.90;99.90;;;;;;4907419;29;20513;-84
2021/10/20 01:48:40;;;;;;;1.73;1.40;;;15.90;99.90;;;;;;4914643;29;20453;-83
2021/10/20 01:51:11;;;;;;;2.43;1.60;;;16.00;99.90;;;;;;4915761;29;20946;-83
2021/10/20 01:53:40;;;;;;;2.03;1.30;;;16.00;99.90;;;;;;4914879;29;20456;-82
2021/10/20 01:56:12;;;;;;;1.50;1.40;;;16.10;99.90;;;;;;4916832;29;20540;-82
2021/10/20 01:58:40;;;;;;;1.60;1.50;;;16.10;99.90;;;;;;4916060;29;20474;-82
2021/10/20 02:01:09;;;;;;;2.33;1.40;;;16.10;99.90;;;;;;4911909;29;20476;-82
2021/10/20 02:03:39;;;;;;;1.90;1.30;;;15.90;99.90;;;;;;4910613;29;20466;-82
2021/10/20 02:06:10;;;;;;;1.57;1.20;;;15.90;99.90;;;;;;4927021;29;20511;-82
2021/10/20 02:08:38;;;;;;;1.20;1.10;;;15.80;99.90;;;;;;4916134;29;20499;-83
2021/10/20 02:11:08;;;;;;;1.83;1.67;;;15.80;99.90;;;;;;4920073;29;20475;-82
2021/10/20 02:13:39;;;;;;;1.70;1.43;;;15.80;99.90;;;;;;4914171;29;20490;-83
2021/10/20 02:16:08;;;;;;;1.50;1.20;;;15.90;99.90;;;;;;4916567;29;21032;-81
2021/10/20 02:18:37;;;;;;;2.93;1.70;;;15.90;99.90;;;;;;4915981;29;20475;-83
2021/10/20 02:21:05;;;;;;;2.10;1.30;;;16.00;99.90;;;;;;4915327;29;20516;-83
2021/10/20 02:23:33;;;;;;;2.17;1.30;;;16.00;99.90;;;;;;4915810;29;20457;-83
2021/10/20 02:26:02;;;;;;;1.30;1.20;;;16.00;99.90;;;;;;4913998;29;20553;-82
2021/10/20 02:28:31;;;;;;;1.43;1.20;;;16.10;99.90;;;;;;4912519;29;20459;-83
2021/10/20 02:31:00;;;;;;;1.57;1.40;;;16.00;99.90;;;;;;4913752;29;20524;-83
2021/10/20 02:33:28;;;;;;;3.07;1.60;;;16.00;99.90;;;;;;4916304;29;20560;-82
2021/10/20 02:35:57;;;;;;;1.87;1.77;;;15.90;99.90;;;;;;4912075;29;20532;-83
2021/10/20 02:38:25;;;;;;;1.40;1.30;;;15.80;99.90;;;;;;4915602;29;20473;-82
2021/10/20 02:40:53;;;;;;;2.40;1.73;;;15.70;99.90;;;;;;4915861;29;20485;-81
2021/10/20 02:43:21;;;;;;;1.57;1.47;;;15.50;99.90;;;;;;4913719;29;20480;-82
2021/10/20 02:45:51;;;;;;;1.63;1.50;;;15.40;99.90;;;;;;4914082;29;20484;-82
2021/10/20 02:48:19;;;;;;;1.43;1.33;;;15.40;99.90;;;;;;4914320;29;20468;-82
2021/10/20 02:50:48;;;;;;;2.60;1.27;;;15.50;99.90;;;;;;4915024;29;20465;-83
2021/10/20 02:53:16;;;;;;;1.60;1.50;;;15.60;99.90;;;;;;4914069;29;20493;-82
2021/10/20 02:55:44;;;;;;;2.57;1.50;;;15.70;99.90;;;;;;4913888;29;20560;-81
2021/10/20 02:58:12;;;;;;;2.90;1.63;;;15.70;99.90;;;;;;4918374;29;20453;-82
2021/10/20 03:00:40;;;;;;;2.10;1.57;;;15.70;99.90;;;;;;4914098;29;20489;-81
2021/10/20 03:03:10;;;;;;;4.00;1.60;;;15.70;99.90;;;;;;4916602;29;20568;-82
2021/10/20 03:05:38;;;;;;;2.43;1.40;;;15.70;99.90;;;;;;4919682;29;20902;-80
2021/10/20 03:08:06;;;;;;;2.40;1.60;;;15.80;99.90;;;;;;4918511;29;20468;-82
2021/10/20 03:10:34;;;;;;;1.50;1.40;;;15.80;99.90;;;;;;4921325;29;20459;-81
2021/10/20 03:13:04;;;;;;;1.87;1.30;;;15.70;99.90;;;;;;4916318;29;20468;-82
2021/10/20 03:15:32;;;;;;;2.90;1.57;;;15.60;99.90;;;;;;4917504;29;20513;-83
2021/10/20 03:18:00;;;;;;;1.70;1.20;;;15.60;99.90;;;;;;4919859;29;20465;-82
2021/10/20 03:20:30;;;;;;;1.63;1.30;;;15.40;99.90;;;;;;4918180;29;20534;-83
2021/10/20 03:22:58;;;;;;;2.83;1.40;;;15.30;99.90;;;;;;4918598;29;20466;-83
2021/10/20 03:25:27;;;;;;;1.43;1.27;;;15.40;99.90;;;;;;4927249;29;20509;-82
2021/10/20 03:27:55;;;;;;;1.93;1.50;;;15.40;99.90;;;;;;4922513;29;20473;-83
2021/10/20 03:30:24;;;;;;;1.70;1.60;;;15.30;99.90;;;;;;4924746;29;20468;-83
2021/10/20 03:32:52;;;;;;;1.77;1.33;;;15.20;99.90;;;;;;4926422;29;20457;-85
2021/10/20 03:35:21;;;;;;;2.23;1.47;;;15.00;99.90;;;;;;4924069;29;20460;-83
2021/10/20 03:37:50;;;;;;;1.53;1.40;;;15.10;99.90;;;;;;4936111;29;20463;-83
2021/10/20 03:40:18;;;;;;;1.90;1.57;;;15.20;99.90;;;;;;4923753;29;20500;-83
2021/10/20 03:42:52;;;;;;;2.27;1.63;;;15.20;99.90;;;;;;4921793;29;21028;-84
2021/10/20 03:45:20;;;;;;;1.93;1.43;;;15.20;99.90;;;;;;4927107;29;20461;-83
2021/10/20 03:47:48;;;;;;;2.93;1.97;;;15.30;99.90;;;;;;4908700;29;20541;-84
2021/10/20 03:50:16;;;;;;;1.33;1.20;;;15.30;99.90;;;;;;4917991;29;20460;-82
2021/10/20 03:52:45;;;;;;;1.70;1.60;;;15.30;99.90;;;;;;4910894;29;21229;-84
2021/10/20 03:55:14;;;;;;;1.83;1.40;;;15.30;99.90;;;;;;4916671;29;20453;-84
2021/10/20 03:57:43;;;;;;;1.67;1.40;;;15.10;99.90;;;;;;4917902;29;20461;-84
2021/10/20 04:00:13;;;;;;;1.50;1.30;;;15.00;99.90;;;;;;4916523;29;20480;-84
2021/10/20 04:02:44;;;;;;;1.60;1.50;;;15.00;99.90;;;;;;4916868;29;20471;-84
2021/10/20 04:05:13;;;;;;;2.20;1.40;;;15.00;99.90;;;;;;4918472;29;20479;-82
2021/10/20 04:07:43;;;;;;;1.60;1.50;;;14.90;99.90;;;;;;4914200;29;20449;-82
2021/10/20 04:10:15;;;;;;;1.93;1.50;;;15.00;99.90;;;;;;4921388;29;20456;-81
2021/10/20 04:12:44;;;;;;;1.67;1.40;;;15.00;99.90;;;;;;4917074;29;21076;-81
2021/10/20 04:15:14;;;;;;;2.30;1.60;;;15.10;99.90;;;;;;4912461;29;20508;-81
2021/10/20 04:17:42;;;;;;;2.10;1.30;;;15.20;99.90;;;;;;4918506;29;20447;-82
2021/10/20 04:20:13;;;;;;;2.00;1.80;;;15.10;99.90;;;;;;4919331;29;20840;-81
2021/10/20 04:22:42;;;;;;;2.10;1.77;;;15.00;99.90;;;;;;4922558;29;20456;-81
2021/10/20 04:25:11;;;;;;;1.53;1.43;;;15.00;99.90;;;;;;4916928;29;20994;-84
2021/10/20 04:27:41;;;;;;;1.70;1.50;;;14.90;99.90;;;;;;4919164;29;20473;-80
2021/10/20 04:30:11;;;;;;;2.30;1.60;;;14.90;99.90;;;;;;4914416;29;20465;-79
2021/10/20 04:32:40;;;;;;;2.27;1.50;;;14.90;99.90;;;;;;4923028;29;20466;-81
2021/10/20 04:35:11;;;;;;;3.00;1.40;;;15.00;99.90;;;;;;4912548;29;20464;-77
2021/10/20 04:37:39;;;;;;;2.63;1.60;;;15.00;99.90;;;;;;4912634;29;21015;-75
2021/10/20 04:40:10;;;;;;;3.07;1.80;;;15.20;99.90;;;;;;4914244;29;20886;-79
2021/10/20 04:42:40;;;;;;;1.47;1.20;;;15.30;99.90;;;;;;4915268;29;20465;-82
2021/10/20 04:45:10;;;;;;;1.70;1.40;;;15.30;99.90;;;;;;4914092;29;20486;-82
2021/10/20 04:47:38;;;;;;;2.10;1.73;;;15.40;99.90;;;;;;4915924;29;20485;-82
2021/10/20 04:50:08;;;;;;;2.97;1.90;;;15.50;99.90;;;;;;4915409;29;20465;-80
2021/10/20 04:52:37;;;;;;;1.80;1.60;;;15.50;99.90;;;;;;4910074;29;20943;-82
2021/10/20 04:55:07;;;;;;;1.70;1.33;;;15.40;99.90;;;;;;4910983;29;20938;-79
2021/10/20 04:57:35;;;;;;;2.40;1.50;;;15.40;99.90;;;;;;4914936;29;20902;-82
2021/10/20 05:00:05;;;;;;;3.50;1.80;;;15.40;99.90;;;;;;4912485;29;20469;-81
2021/10/20 05:02:36;;;;;;;1.60;1.50;;;15.40;99.90;;;;;;4917151;29;20996;-81
2021/10/20 05:05:06;;;;;;;5.00;2.13;;;15.40;99.90;;;;;;4915950;29;20540;-81
2021/10/20 05:07:35;;;;;;;5.13;2.23;;;15.40;99.90;;;;;;4907565;29;21023;-81
2021/10/20 05:10:04;;;;;;;2.10;1.63;;;15.40;99.90;;;;;;4916745;29;20485;-80
2021/10/20 05:12:32;;;;;;;2.73;1.50;;;15.40;99.90;;;;;;4917185;29;20447;-80
2021/10/20 05:15:00;;;;;;;2.47;1.60;;;15.30;99.90;;;;;;4915518;29;21094;-81
2021/10/20 05:17:28;;;;;;;1.70;1.50;;;15.40;99.90;;;;;;4914280;29;21225;-81
2021/10/20 05:19:58;;;;;;;1.40;1.20;;;15.50;99.90;;;;;;4913471;29;20505;-81
2021/10/20 05:22:26;;;;;;;1.77;1.40;;;15.40;99.90;;;;;;4910786;29;20490;-80
2021/10/20 05:24:54;;;;;;;1.57;1.43;;;15.40;99.90;;;;;;4915656;29;20533;-81
2021/10/20 05:27:22;;;;;;;3.40;1.80;;;15.10;99.90;;;;;;4907044;29;20468;-77
2021/10/20 05:29:50;;;;;;;1.50;1.40;;;15.20;99.90;;;;;;4912072;29;20251;-80
2021/10/20 05:32:19;;;;;;;1.40;1.30;;;15.30;99.90;;;;;;4910242;29;20476;-82
2021/10/20 05:34:47;;;;;;;1.80;1.70;;;15.30;99.90;;;;;;4917647;29;20457;-82
2021/10/20 05:37:16;;;;;;;1.60;1.50;;;15.20;99.90;;;;;;4908848;29;20487;-81
2021/10/20 05:39:44;;;;;;;1.70;1.43;;;15.00;99.90;;;;;;4908735;29;20464;-80
2021/10/20 05:42:13;;;;;;;1.50;1.40;;;15.00;99.90;;;;;;4911700;29;20491;-81
2021/10/20 05:44:41;;;;;;;1.87;1.53;;;14.90;99.90;;;;;;4913101;29;20471;-80
2021/10/20 05:47:10;;;;;;;3.43;1.43;;;15.00;99.90;;;;;;4911273;29;20480;-83
2021/10/20 05:49:38;;;;;;;1.77;1.30;;;14.90;99.90;;;;;;4911959;29;20467;-79
2021/10/20 05:52:07;;;;;;;3.40;1.63;;;15.00;99.90;;;;;;4913168;29;20450;-80
2021/10/20 05:54:37;;;;;;;1.60;1.20;;;15.10;99.90;;;;;;4913178;29;20459;-80
2021/10/20 05:57:05;;;;;;;2.70;1.40;;;14.90;99.90;;;;;;4912112;29;20906;-81
2021/10/20 05:59:33;;;;;;;2.10;1.53;;;14.70;99.90;;;;;;4915921;29;20464;-82
2021/10/20 06:02:01;;;;;;;4.00;1.60;;;14.80;99.90;;;;;;4909574;29;20479;-81
2021/10/20 06:04:30;;;;;;;1.30;1.10;;;14.90;99.90;;;;;;4914750;29;20564;-80
2021/10/20 06:06:58;;;;;;;2.40;1.77;;;14.90;99.90;;;;;;4912745;29;20555;-81
2021/10/20 06:09:27;;;;;;;1.90;1.37;;;15.00;99.90;;;;;;4905530;29;20465;-81
2021/10/20 06:11:57;;;;;;;1.97;1.30;;;15.00;99.90;;;;;;4905578;29;20501;-81
2021/10/20 06:14:25;;;;;;;3.03;1.50;;;15.10;99.90;;;;;;4912648;29;20503;-81
2021/10/20 06:16:53;;;;;;;1.93;1.30;;;15.10;99.90;;;;;;4914489;29;20487;-81
2021/10/20 06:19:22;;;;;;;1.67;1.30;;;15.30;99.90;;;;;;4912201;29;20515;-80
2021/10/20 06:21:50;;;;;;;2.23;1.93;;;15.40;99.90;;;;;;4914691;29;20567;-82
2021/10/20 06:24:18;;;;;;;2.20;1.40;;;15.50;99.90;;;;;;4911832;29;21299;-81
2021/10/20 06:26:46;;;;;;;1.67;1.43;;;15.60;99.90;;;;;;4917621;29;20488;-82
2021/10/20 06:29:17;;;;;;;1.80;1.40;;;15.60;99.90;;;;;;4916716;29;20472;-80
2021/10/20 06:31:46;;;;;;;1.43;1.30;;;15.60;99.90;;;;;;4918257;29;21107;-81
2021/10/20 06:34:14;;;;;;;2.37;1.43;;;15.60;99.90;;;;;;4916487;29;20543;-83
2021/10/20 06:36:43;;;;;;;1.50;1.40;;;15.50;99.90;;;;;;4911494;29;20496;-81
2021/10/20 06:39:11;;;;;;;1.77;1.40;;;15.50;99.90;;;;;;4920002;29;20994;-81
2021/10/20 06:41:39;;;;;;;2.60;1.60;;;15.50;99.90;;;;;;4914979;29;21080;-81
2021/10/20 06:44:07;;;;;;;3.20;1.83;;;15.50;99.90;;;;;;4912941;29;20538;-82
2021/10/20 06:46:37;;;;;;;2.13;1.87;;;15.50;99.90;;;;;;4913872;29;20553;-80
2021/10/20 06:49:05;;;;;;;3.33;1.70;;;15.60;99.90;;;;;;4911997;29;20468;-84
2021/10/20 06:51:33;;;;;;;3.33;1.80;;;15.60;99.90;;;;;;4908450;29;20972;-81
2021/10/20 06:54:01;;;;;;;2.00;1.50;;;15.60;99.90;;;;;;4911602;29;20465;-82
2021/10/20 06:56:29;;;;;;;3.47;1.50;;;15.60;99.90;;;;;;4918059;29;20487;-81
2021/10/20 06:58:57;;;;;;;1.77;1.67;;;15.60;99.90;;;;;;4911734;29;21073;-82
2021/10/20 07:01:26;;;;;;;2.43;1.40;;;15.60;99.90;;;;;;4913848;29;20490;-82
2021/10/20 07:03:55;;;;;;;1.37;1.27;;;15.60;99.90;;;;;;4913296;29;20477;-82
2021/10/20 07:06:27;;;;;;;1.93;1.50;;;15.70;99.90;;;;;;4908262;29;20939;-83
2021/10/20 07:08:56;;;;;;;1.70;1.30;;;15.60;99.90;;;;;;4906468;29;20457;-79
2021/10/20 07:11:25;;;;;;;2.00;1.47;;;15.60;99.90;;;;;;4914521;29;20502;-82
2021/10/20 07:13:53;;;;;;;1.50;1.40;;;15.60;99.90;;;;;;4910382;29;20466;-81
2021/10/20 07:16:21;;;;;;;1.50;1.10;;;15.80;99.90;;;;;;4913055;29;21024;-80
2021/10/20 07:18:50;;;;;;;2.03;1.53;;;15.80;99.90;;;;;;4914179;29;20485;-81
2021/10/20 07:21:20;;;;;;;3.03;1.60;;;15.80;99.90;;;;;;4912421;29;21163;-80
2021/10/20 07:23:48;;;;;;;1.50;1.40;;;15.90;99.90;;;;;;4914924;29;20640;-81
2021/10/20 07:26:21;;;;;;;1.60;1.50;;;15.90;99.90;;;;;;4906089;29;20480;-81
2021/10/20 07:28:49;;;;;;;1.57;1.30;;;16.00;99.90;;;;;;4915747;29;20464;-80
2021/10/20 07:31:18;;;;;;;3.67;2.13;;;15.90;99.90;;;;;;4914220;29;20481;-81
2021/10/20 07:33:46;;;;;;;1.50;1.30;;;16.10;99.90;;;;;;4922264;29;20959;-81
2021/10/20 07:36:14;;;;;;;1.57;1.47;;;16.10;99.90;;;;;;4910600;29;20504;-82
2021/10/20 07:38:44;;;;;;;1.30;1.03;;;16.10;99.90;;;;;;4911465;29;21159;-83
2021/10/20 07:41:12;;;;;;;2.33;1.43;;;16.20;99.90;;;;;;4910649;29;20465;-81
2021/10/20 07:43:40;;;;;;;1.60;1.10;;;16.30;99.90;;;;;;4914231;29;20476;-81
2021/10/20 07:46:08;;;;;;;1.70;1.60;;;16.50;99.90;;;;;;4911600;29;20492;-82
2021/10/20 07:48:37;;;;;;;3.23;1.73;;;16.80;99.90;;;;;;4914366;29;20538;-81
2021/10/20 07:51:05;;;;;;;1.43;1.33;;;17.00;99.90;;;;;;4927848;29;20484;-81
2021/10/20 07:53:33;;;;;;;2.77;1.47;;;17.20;99.90;;;;;;4912856;29;20449;-81
2021/10/20 07:56:03;;;;;;;1.60;1.50;;;17.20;99.90;;;;;;4919228;29;20505;-81
2021/10/20 07:58:31;;;;;;;1.73;1.40;;;17.30;99.90;;;;;;4921625;29;21018;-82
2021/10/20 08:00:59;;;;;;;1.60;1.50;;;17.40;99.90;;;;;;4914785;29;20496;-81
2021/10/20 08:03:29;;;;;;;2.90;1.60;;;17.40;99.90;;;;;;4911363;29;21018;-83
2021/10/20 08:05:57;;;;;;;2.40;1.50;;;17.40;99.90;;;;;;4918526;29;20496;-82
2021/10/20 08:08:25;;;;;;;2.37;1.50;;;17.60;99.90;;;;;;4915536;29;20475;-83
2021/10/20 08:10:54;;;;;;;1.67;1.57;;;17.80;99.90;;;;;;4919277;29;20543;-83
2021/10/20 08:13:23;;;;;;;1.40;1.30;;;17.90;99.90;;;;;;4910867;29;20444;-82
2021/10/20 08:15:51;;;;;;;1.97;1.50;;;18.00;99.90;;;;;;4914977;29;20511;-83
2021/10/20 08:18:19;;;;;;;2.10;1.30;;;18.20;99.90;;;;;;4918098;29;20796;-84
2021/10/20 08:20:48;;;;;;;1.93;1.20;;;18.40;99.90;;;;;;4918094;29;20452;-83
2021/10/20 08:23:16;;;;;;;4.23;2.03;;;18.60;99.90;;;;;;4918095;29;20469;-83
2021/10/20 08:25:44;;;;;;;2.27;2.00;;;18.80;99.90;;;;;;4919089;29;20480;-83
2021/10/20 08:28:12;;;;;;;1.73;1.47;;;18.90;99.90;;;;;;4916667;29;21029;-83
2021/10/20 08:30:42;;;;;;;2.80;1.50;;;18.90;99.90;;;;;;4914696;29;20464;-82
2021/10/20 08:33:11;;;;;;;2.70;1.50;;;18.90;99.90;;;;;;4913006;29;20462;-82
2021/10/20 08:35:39;;;;;;;2.10;1.40;;;19.10;99.90;;;;;;4918372;29;20525;-83
2021/10/20 08:38:07;;;;;;;3.80;1.27;;;19.20;99.90;;;;;;4914173;29;20450;-83
2021/10/20 08:40:37;;;;;;;5.63;1.20;;;19.10;99.90;;;;;;4911590;29;20462;-82
2021/10/20 08:43:06;;;;;;;1.50;1.30;;;19.10;99.90;;;;;;4914451;29;20478;-83
2021/10/20 08:45:35;;;;;;;2.07;1.30;;;19.00;99.90;;;;;;4926611;29;20450;-83
2021/10/20 08:48:05;;;;;;;2.70;1.73;;;19.00;99.90;;;;;;4918573;29;20461;-83
2021/10/20 08:50:36;;;;;;;1.30;1.20;;;19.10;99.90;;;;;;4930471;29;20517;-83
2021/10/20 08:53:06;;;;;;;1.40;1.30;;;19.10;99.90;;;;;;4909412;29;20443;-79
2021/10/20 08:55:35;;;;;;;2.27;1.33;;;19.10;99.90;;;;;;4922711;29;20557;-81
2021/10/20 08:58:03;;;;;;;2.30;1.50;;;19.30;99.90;;;;;;4911905;29;20510;-80
2021/10/20 09:00:31;;;;;;;3.17;1.40;;;19.50;99.90;;;;;;4909955;29;20462;-78
2021/10/20 09:03:00;;;;;;;1.63;1.20;;;19.60;99.90;;;;;;4914764;29;20486;-82
2021/10/20 09:05:30;;;;;;;1.50;1.40;;;19.90;99.90;;;;;;4913215;29;20553;-79
2021/10/20 09:07:59;;;;;;;1.30;1.20;;;20.10;99.90;;;;;;4904337;29;20465;-78
2021/10/20 09:10:30;;;;;;;3.30;1.40;;;20.20;99.90;;;;;;4912367;29;21053;-82
2021/10/20 09:12:59;;;;;;;1.50;1.40;;;20.10;99.90;;;;;;4914459;29;20465;-83
2021/10/20 09:15:29;;;;;;;1.27;1.17;;;20.00;99.90;;;;;;4917156;29;20458;-83
2021/10/20 09:18:04;;;;;;;1.23;1.13;;;20.10;99.90;;;;;;4910556;29;20457;-82
2021/10/20 09:20:35;;;;;;;1.20;1.10;;;19.90;99.90;;;;;;4915842;29;20468;-81
2021/10/20 09:23:07;;;;;;;1.27;1.17;;;19.80;99.90;;;;;;4918622;29;20473;-84
2021/10/20 09:25:39;;;;;;;2.63;1.50;;;20.00;99.90;;;;;;4918297;29;20454;-81
2021/10/20 09:28:09;;;;;;;1.60;1.10;;;20.10;99.90;;;;;;4908752;29;20446;-82
2021/10/20 09:30:39;;;;;;;3.07;1.53;;;20.10;99.90;;;;;;4918385;29;20879;-82
2021/10/20 09:33:09;;;;;;;1.20;1.10;;;20.00;99.90;;;;;;4903177;29;20455;-81
2021/10/20 09:35:39;;;;;;;1.30;1.17;;;19.80;99.90;;;;;;4926208;29;20470;-81
2021/10/20 09:38:09;;;;;;;1.30;1.20;;;19.90;99.90;;;;;;4909538;29;20866;-81
2021/10/20 09:40:40;;;;;;;2.17;1.17;;;20.10;99.90;;;;;;4909673;29;20469;-82
2021/10/20 09:43:09;;;;;;;2.20;1.40;;;20.30;99.90;;;;;;4927366;29;20485;-81
2021/10/20 09:45:39;;;;;;;1.30;1.20;;;20.60;99.90;;;;;;4917933;29;20470;-82
2021/10/20 09:48:16;;;;;;;1.10;1.00;;;20.80;99.90;;;;;;4908842;29;20493;-81
2021/10/20 09:51:02;;;;;;;1.40;1.30;;;21.00;99.90;;;;;;4915108;29;20462;-81
2021/10/20 09:53:33;;;;;;;1.47;1.37;;;21.00;99.90;;;;;;4916063;29;20520;-81
2021/10/20 09:56:03;;;;;;;2.03;1.40;;;21.20;99.90;;;;;;4912557;29;20477;-80
2021/10/20 09:58:33;;;;;;;1.43;1.33;;;21.20;99.90;;;;;;4917857;29;20935;-83
2021/10/20 10:01:02;;;;;;;3.33;1.40;;;21.20;99.90;;;;;;4918375;29;20474;-82
2021/10/20 10:03:32;;;;;;;2.73;1.00;;;21.20;99.90;;;;;;4912400;29;20475;-82
2021/10/20 10:06:02;;;;;;;1.30;1.20;;;21.30;99.90;;;;;;4913365;29;20560;-83
2021/10/20 10:08:30;;;;;;;2.50;1.40;;;21.30;99.90;;;;;;4915774;29;20460;-83
2021/10/20 10:11:00;;;;;;;2.07;1.87;;;21.20;99.90;;;;;;4931034;29;21229;-82
2021/10/20 10:13:31;;;;;;;1.30;1.20;;;21.30;99.90;;;;;;4918341;29;20441;-82
2021/10/20 10:16:01;;;;;;;1.13;1.03;;;21.30;99.90;;;;;;4915134;29;20547;-77
2021/10/20 10:18:30;;;;;;;1.60;1.50;;;21.20;99.90;;;;;;4906683;29;20453;-77
2021/10/20 10:20:58;;;;;;;1.87;1.40;;;21.30;99.90;;;;;;4919446;29;20444;-77
2021/10/20 10:23:30;;;;;;;1.63;1.53;;;21.50;99.90;;;;;;4920111;29;21169;-77
2021/10/20 10:26:02;;;;;;;2.70;1.43;;;21.70;99.90;;;;;;4911770;29;21164;-76
2021/10/20 10:28:31;;;;;;;1.40;1.10;;;21.90;99.90;;;;;;4905639;29;20460;-77
2021/10/20 10:31:05;;;;;;;1.70;1.33;;;22.00;99.90;;;;;;4903747;29;20447;-81
2021/10/20 10:33:38;;;;;;;2.50;1.20;;;21.90;99.90;;;;;;4908202;29;20572;-84
2021/10/20 10:36:15;;;;;;;4.13;1.50;;;21.70;99.90;;;;;;4907357;29;20543;-81
2021/10/20 10:38:47;;;;;;;1.57;1.30;;;21.40;99.90;;;;;;4912799;29;20461;-82
2021/10/20 10:41:28;;;;;;;3.73;1.40;;;21.00;99.90;;;;;;4912597;29;20456;-80
2021/10/20 10:44:28;;;;;;;1.70;1.30;;;20.80;99.90;;;;;;4913364;29;20484;-82
2021/10/20 10:47:05;;;;;;;2.80;1.80;;;20.80;99.90;;;;;;4916765;29;20483;-82
2021/10/20 10:49:36;;;;;;;2.37;1.67;;;20.80;99.90;;;;;;4910165;29;20584;-80
2021/10/20 10:52:33;;;;;;;2.83;1.27;;;20.80;99.90;;;;;;4911209;29;21040;-80
2021/10/20 10:55:16;;;;;;;1.50;1.40;;;21.10;99.90;;;;;;4928396;29;20467;-81
2021/10/20 10:57:54;;;;;;;1.13;1.03;;;21.40;99.90;;;;;;4915094;29;20509;-82
2021/10/20 11:00:34;;;;;;;1.47;1.27;;;21.50;99.90;;;;;;4917411;29;20515;-81
2021/10/20 11:03:26;;;;;;;1.33;1.23;;;21.60;99.90;;;;;;4912444;29;20479;-83
2021/10/20 11:05:59;;;;;;;1.20;1.10;;;21.60;99.90;;;;;;4917456;29;20483;-82
2021/10/20 11:08:28;;;;;;;1.73;1.20;;;21.70;99.90;;;;;;4911448;29;20467;-82
2021/10/20 11:10:58;;;;;;;1.20;1.10;;;21.60;99.90;;;;;;4908125;29;20470;-82
2021/10/20 11:13:27;;;;;;;3.37;1.50;;;21.50;99.90;;;;;;4910050;29;20490;-83
2021/10/20 11:15:55;;;;;;;1.23;1.20;;;21.30;99.90;;;;;;4924834;29;20479;-83
2021/10/20 11:18:25;;;;;;;1.30;1.20;;;21.30;99.90;;;;;;4913161;29;20462;-82
2021/10/20 11:20:55;;;;;;;1.10;0.90;;;21.20;99.90;;;;;;4912281;29;20533;-83
2021/10/20 11:23:28;;;;;;;1.20;1.10;;;21.20;99.90;;;;;;4915590;29;20969;-83
2021/10/20 11:26:01;;;;;;;1.30;1.20;;;21.20;99.90;;;;;;4913479;29;21152;-81
2021/10/20 11:28:33;;;;;;;1.10;1.00;;;21.20;99.90;;;;;;4915682;29;20466;-80
2021/10/20 11:31:07;;;;;;;1.70;1.13;;;21.10;99.90;;;;;;4927894;29;20461;-81
2021/10/20 11:33:36;;;;;;;2.23;1.03;;;21.10;99.90;;;;;;4925443;29;20450;-83
2021/10/20 11:36:05;;;;;;;1.47;1.20;;;21.30;99.90;;;;;;4917317;29;20512;-82
2021/10/20 11:38:34;;;;;;;1.30;1.20;;;21.50;99.90;;;;;;4906650;29;20463;-82
2021/10/20 11:41:04;;;;;;;1.03;1.03;;;21.70;99.90;;;;;;4914205;29;20542;-81
2021/10/20 11:43:39;;;;;;;1.03;0.90;;;21.60;99.90;;;;;;4908156;29;21036;-81
2021/10/20 11:46:08;;;;;;;1.57;1.10;;;21.80;99.90;;;;;;4914399;29;21052;-82
2021/10/20 11:48:36;;;;;;;1.43;1.20;;;21.90;99.90;;;;;;4915615;29;20448;-82
2021/10/20 11:51:05;;;;;;;1.67;1.30;;;22.10;99.90;;;;;;4914980;29;20967;-82
2021/10/20 11:53:33;;;;;;;3.43;1.10;;;22.20;99.90;;;;;;4915482;29;21021;-82
2021/10/20 11:56:02;;;;;;;2.00;1.60;;;22.10;99.90;;;;;;4914303;29;20854;-83
2021/10/20 11:58:33;;;;;;;2.13;1.23;;;22.30;99.90;;;;;;4915069;29;20487;-82
2021/10/20 12:01:03;;;;;;;1.43;1.30;;;22.30;99.90;;;;;;4919872;29;20992;-82
2021/10/20 12:03:35;;;;;;;1.73;1.30;;;22.50;99.90;;;;;;4910693;29;20516;-83
2021/10/20 12:06:07;;;;;;;1.73;1.43;;;22.40;99.90;;;;;;4913289;29;20586;-82
2021/10/20 12:08:36;;;;;;;2.00;1.23;;;22.40;99.90;;;;;;4914027;29;20507;-83
2021/10/20 12:11:05;;;;;;;1.83;1.23;;;22.50;99.90;;;;;;4908295;29;20818;-83
2021/10/20 12:13:37;;;;;;;1.30;1.00;;;22.40;99.90;;;;;;4909575;29;21032;-82
2021/10/20 12:16:07;;;;;;;1.53;1.20;;;22.40;99.90;;;;;;4913886;29;20517;-83
2021/10/20 12:18:39;;;;;;;1.37;1.20;;;22.50;99.90;;;;;;4915422;29;20989;-83
2021/10/20 12:21:12;;;;;;;2.17;1.23;;;22.60;99.90;;;;;;4914942;29;20487;-83
2021/10/20 12:23:42;;;;;;;1.70;1.60;;;22.60;99.90;;;;;;4915612;29;20480;-83
2021/10/20 12:26:10;;;;;;;1.70;1.20;;;22.70;99.90;;;;;;4904548;29;20569;-82
2021/10/20 12:28:40;;;;;;;1.13;1.00;;;22.60;99.90;;;;;;4910719;29;20964;-83
2021/10/20 12:31:10;;;;;;;2.10;1.20;;;22.70;99.90;;;;;;4925986;29;20520;-85
2021/10/20 12:33:42;;;;;;;1.20;1.10;;;22.60;99.90;;;;;;4904829;29;20457;-83
2021/10/20 12:36:12;;;;;;;1.50;1.20;;;22.40;99.90;;;;;;4923125;29;20529;-84
2021/10/20 12:38:42;;;;;;;1.10;1.00;;;22.40;99.90;;;;;;4907689;29;20470;-83
2021/10/20 12:41:11;;;;;;;2.23;1.37;;;22.40;99.90;;;;;;4914605;29;20457;-83
2021/10/20 12:43:41;;;;;;;2.83;1.20;;;22.20;99.90;;;;;;4910795;29;20468;-84
2021/10/20 12:46:30;;;;;;;1.20;1.10;;;21.90;99.90;;;;;;4908354;29;20501;-83
2021/10/20 12:48:59;;;;;;;1.40;1.30;;;21.80;99.90;;;;;;4913018;29;20462;-83
2021/10/20 12:51:29;;;;;;;1.17;1.17;;;21.70;99.90;;;;;;4907724;29;21042;-84
2021/10/20 12:53:59;;;;;;;1.20;1.00;;;21.50;99.90;;;;;;4915480;29;20473;-83
2021/10/20 12:56:29;;;;;;;1.10;1.00;;;21.60;99.90;;;;;;4915615;29;21002;-82
2021/10/20 12:59:18;;;;;;;1.40;1.30;;;21.40;99.90;;;;;;4931075;29;20472;-82
2021/10/20 13:01:47;;;;;;;1.53;1.10;;;21.40;99.90;;;;;;4907296;29;20469;-82